Time;durP1;ratioP1;P1;durP2;ratioP2;P2;SDS_P1;SDS_P2;PMS_P1;PMS_P2;Temp;Humidity;BMP_temperature;BMP_pressure;BME280_temperature;BME280_humidity;BME280_pressure;Samples;Min_cycle;Max_cycle;Signal;HPM_P1;HPM_P2
2021/12/25 05:02:03;;;;;;;25.77;15.50;;;8.40;99.90;;;;;;5291387;23;20592;-76
2021/12/25 05:04:34;;;;;;;26.33;15.57;;;8.40;99.90;;;;;;4953422;29;20526;-76
2021/12/25 05:07:02;;;;;;;27.50;14.97;;;8.40;99.90;;;;;;4953396;29;20556;-76
2021/12/25 05:09:29;;;;;;;25.87;15.43;;;8.40;99.90;;;;;;4952835;29;20452;-76
2021/12/25 05:11:56;;;;;;;23.10;13.70;;;8.40;99.90;;;;;;4953401;28;20560;-76
2021/12/25 05:14:23;;;;;;;22.50;13.40;;;8.40;99.90;;;;;;4953819;29;20543;-75
2021/12/25 05:16:50;;;;;;;23.23;12.80;;;8.40;99.90;;;;;;4953197;29;20543;-75
2021/12/25 05:19:18;;;;;;;51.03;15.00;;;8.40;99.90;;;;;;4952383;29;20899;-75
2021/12/25 05:21:45;;;;;;;53.77;14.00;;;8.40;99.90;;;;;;4953232;28;20568;-75
2021/12/25 05:24:12;;;;;;;27.23;14.87;;;8.30;99.90;;;;;;4952992;29;21305;-75
2021/12/25 05:26:40;;;;;;;28.87;14.30;;;8.30;99.90;;;;;;4953306;28;20548;-75
2021/12/25 05:29:07;;;;;;;29.07;14.97;;;8.30;99.90;;;;;;4956127;29;20464;-75
2021/12/25 05:31:36;;;;;;;19.77;13.07;;;8.40;99.90;;;;;;4956495;28;20487;-75
2021/12/25 05:34:04;;;;;;;25.53;14.13;;;8.40;99.90;;;;;;4956970;29;20551;-75
2021/12/25 05:36:32;;;;;;;42.53;15.37;;;8.30;99.90;;;;;;4956221;29;20543;-75
2021/12/25 05:39:00;;;;;;;23.43;13.63;;;8.40;99.90;;;;;;4956399;29;20461;-75
2021/12/25 05:41:29;;;;;;;25.90;14.47;;;8.30;99.90;;;;;;4956482;28;20828;-75
2021/12/25 05:43:56;;;;;;;23.47;13.60;;;8.40;99.90;;;;;;4951264;29;20445;-75
2021/12/25 05:46:24;;;;;;;24.63;14.17;;;8.40;99.90;;;;;;4946008;29;20534;-75
2021/12/25 05:48:51;;;;;;;48.00;15.37;;;8.30;99.90;;;;;;4943990;29;20469;-75
2021/12/25 05:51:19;;;;;;;22.23;12.70;;;8.40;99.90;;;;;;4945197;29;20555;-75
2021/12/25 05:53:48;;;;;;;25.00;13.90;;;8.30;99.90;;;;;;4946411;29;20438;-75
2021/12/25 05:56:15;;;;;;;20.00;13.20;;;8.30;99.90;;;;;;4943312;29;20998;-75
2021/12/25 05:58:42;;;;;;;20.20;12.87;;;8.30;99.90;;;;;;4936806;29;20450;-75
2021/12/25 06:01:11;;;;;;;24.63;13.40;;;8.30;99.90;;;;;;4936603;29;20505;-75
2021/12/25 06:03:38;;;;;;;21.67;13.60;;;8.30;99.90;;;;;;4936765;29;20446;-75
2021/12/25 06:06:06;;;;;;;21.97;12.00;;;8.30;99.90;;;;;;4937110;29;20876;-75
2021/12/25 06:08:33;;;;;;;20.63;11.63;;;8.30;99.90;;;;;;4937001;29;20533;-75
2021/12/25 06:11:02;;;;;;;22.50;12.53;;;8.30;99.90;;;;;;4942410;29;20461;-75
2021/12/25 06:13:30;;;;;;;25.93;15.50;;;8.30;99.90;;;;;;4950213;29;20480;-75
2021/12/25 06:15:57;;;;;;;31.33;16.17;;;8.30;99.90;;;;;;4955911;28;20453;-75
2021/12/25 06:18:24;;;;;;;78.03;16.23;;;8.30;99.90;;;;;;4955527;29;20559;-75
2021/12/25 06:20:51;;;;;;;22.93;13.67;;;8.20;99.90;;;;;;4955610;29;20577;-75
2021/12/25 06:23:18;;;;;;;21.37;13.50;;;8.20;99.90;;;;;;4955995;29;20539;-75
2021/12/25 06:25:45;;;;;;;45.70;15.30;;;8.20;99.90;;;;;;4955643;29;20543;-75
2021/12/25 06:28:14;;;;;;;17.20;11.33;;;8.20;99.90;;;;;;4955615;29;20898;-75
2021/12/25 06:30:43;;;;;;;21.60;11.50;;;8.20;99.90;;;;;;4955135;29;20550;-75
2021/12/25 06:33:09;;;;;;;19.87;11.40;;;8.20;99.90;;;;;;4955768;29;20488;-75
2021/12/25 06:35:36;;;;;;;18.60;11.83;;;8.20;99.90;;;;;;4955638;29;20557;-75
2021/12/25 06:38:03;;;;;;;20.90;12.13;;;8.20;99.90;;;;;;4955734;29;20453;-75
2021/12/25 06:40:31;;;;;;;18.27;11.73;;;8.20;99.90;;;;;;4954018;28;20588;-75
2021/12/25 06:42:58;;;;;;;16.13;10.30;;;8.20;99.90;;;;;;4955204;29;21024;-75
2021/12/25 06:45:27;;;;;;;18.30;11.03;;;8.20;99.90;;;;;;4955034;28;20460;-76
2021/12/25 06:47:54;;;;;;;17.20;11.07;;;8.20;99.90;;;;;;4955329;29;20453;-75
2021/12/25 06:50:21;;;;;;;18.57;11.20;;;8.20;99.90;;;;;;4955031;29;20535;-76
2021/12/25 06:52:48;;;;;;;22.00;12.90;;;8.20;99.90;;;;;;4955210;29;20459;-74
2021/12/25 06:55:15;;;;;;;21.73;13.20;;;8.20;99.90;;;;;;4955647;29;20543;-78
2021/12/25 06:57:48;;;;;;;20.40;12.63;;;8.20;99.90;;;;;;4955756;28;20488;-75
2021/12/25 07:00:17;;;;;;;20.47;11.83;;;8.20;99.90;;;;;;4954958;28;21253;-75
2021/12/25 07:02:45;;;;;;;23.00;13.20;;;8.20;99.90;;;;;;4955241;28;20433;-76
2021/12/25 07:05:12;;;;;;;22.87;13.93;;;8.20;99.90;;;;;;4955735;29;20489;-76
2021/12/25 07:07:39;;;;;;;22.97;12.40;;;8.20;99.90;;;;;;4955691;29;20567;-77
2021/12/25 07:10:07;;;;;;;22.73;13.17;;;8.20;99.90;;;;;;4954859;29;20551;-74
2021/12/25 07:12:37;;;;;;;19.67;12.50;;;8.10;99.90;;;;;;4955059;29;20475;-77
2021/12/25 07:15:04;;;;;;;19.77;12.73;;;8.10;99.90;;;;;;4956659;29;20449;-75
2021/12/25 07:17:31;;;;;;;21.93;13.07;;;8.10;99.90;;;;;;4956814;29;20535;-77
2021/12/25 07:20:00;;;;;;;19.93;14.13;;;8.10;99.90;;;;;;4954354;29;21038;-74
2021/12/25 07:22:27;;;;;;;20.60;12.53;;;8.20;99.90;;;;;;4954749;29;20465;-73
2021/12/25 07:24:54;;;;;;;17.47;11.10;;;8.20;99.90;;;;;;4955874;29;20543;-76
2021/12/25 07:27:21;;;;;;;19.50;12.03;;;8.20;99.90;;;;;;4958624;29;20536;-77
2021/12/25 07:29:47;;;;;;;17.70;11.67;;;8.20;99.90;;;;;;4959386;29;20989;-77
2021/12/25 07:32:14;;;;;;;20.17;11.87;;;8.20;99.90;;;;;;4959280;29;20896;-73
2021/12/25 07:34:41;;;;;;;20.23;11.40;;;8.20;99.90;;;;;;4955151;29;20539;-74
2021/12/25 07:37:09;;;;;;;23.77;11.90;;;8.20;99.90;;;;;;4957254;28;20539;-77
2021/12/25 07:39:36;;;;;;;19.30;9.90;;;8.10;99.90;;;;;;4956544;29;20543;-76
2021/12/25 07:42:04;;;;;;;16.93;9.87;;;8.10;99.90;;;;;;4960042;29;20524;-77
2021/12/25 07:44:31;;;;;;;15.00;9.50;;;8.10;99.90;;;;;;4954916;29;20883;-73
2021/12/25 07:46:58;;;;;;;14.37;9.17;;;8.00;99.90;;;;;;4954345;29;20448;-75
2021/12/25 07:49:27;;;;;;;13.37;9.00;;;8.00;99.90;;;;;;4954185;28;20500;-73
2021/12/25 07:51:53;;;;;;;17.33;9.73;;;8.10;99.90;;;;;;4953753;28;20476;-73
2021/12/25 07:54:22;;;;;;;17.30;10.37;;;8.20;99.90;;;;;;4954404;29;20536;-73
2021/12/25 07:56:49;;;;;;;15.57;10.37;;;8.10;99.90;;;;;;4954256;29;20460;-73
2021/12/25 07:59:16;;;;;;;17.53;10.73;;;8.10;99.90;;;;;;4955107;29;20517;-76
2021/12/25 08:01:43;;;;;;;14.50;9.77;;;8.20;99.90;;;;;;4958693;29;20508;-78
2021/12/25 08:04:10;;;;;;;15.00;10.80;;;8.20;99.90;;;;;;4958376;29;20495;-79
2021/12/25 08:06:39;;;;;;;20.93;12.87;;;8.20;99.90;;;;;;4960752;29;20449;-80
2021/12/25 08:09:06;;;;;;;18.40;12.47;;;8.20;99.90;;;;;;4958614;28;20467;-79
2021/12/25 08:11:36;;;;;;;19.10;13.17;;;8.20;99.90;;;;;;4954732;29;20508;-78
2021/12/25 08:14:03;;;;;;;20.00;12.70;;;8.30;99.90;;;;;;4956855;28;20958;-75
2021/12/25 08:16:30;;;;;;;18.53;12.57;;;8.30;99.90;;;;;;4955044;29;20543;-76
2021/12/25 08:18:57;;;;;;;22.80;13.03;;;8.30;99.90;;;;;;4958105;29;20535;-77
2021/12/25 08:21:24;;;;;;;18.70;13.00;;;8.40;99.90;;;;;;4962073;29;20564;-77
2021/12/25 08:23:54;;;;;;;20.23;13.10;;;8.40;99.90;;;;;;4956978;29;20515;-76
2021/12/25 08:26:21;;;;;;;21.37;13.27;;;8.40;99.90;;;;;;4959595;29;20519;-78
2021/12/25 08:28:49;;;;;;;21.80;13.10;;;8.40;99.90;;;;;;4955049;29;20535;-76
2021/12/25 08:31:16;;;;;;;22.03;15.20;;;8.40;99.90;;;;;;4956234;29;20556;-79
2021/12/25 08:33:43;;;;;;;29.13;18.13;;;8.40;99.90;;;;;;4953799;29;20472;-77
2021/12/25 08:36:10;;;;;;;28.90;16.90;;;8.40;99.90;;;;;;4942152;29;20524;-78
2021/12/25 08:38:37;;;;;;;23.40;16.10;;;8.40;99.90;;;;;;4944098;29;20470;-74
2021/12/25 08:41:04;;;;;;;26.27;18.03;;;8.40;99.90;;;;;;4944894;29;20518;-74
2021/12/25 08:43:35;;;;;;;23.80;15.77;;;8.40;99.90;;;;;;4942572;29;20509;-74
2021/12/25 08:46:13;;;;;;;27.57;16.97;;;8.50;99.90;;;;;;4942024;29;20457;-75
2021/12/25 08:48:40;;;;;;;26.53;17.07;;;8.40;99.90;;;;;;4953305;29;20464;-75
2021/12/25 08:51:07;;;;;;;22.50;15.60;;;8.40;99.90;;;;;;4953537;29;20503;-75
2021/12/25 08:53:34;;;;;;;23.53;15.40;;;8.50;99.90;;;;;;4953557;29;20539;-75
2021/12/25 08:56:01;;;;;;;24.87;16.73;;;8.50;99.90;;;;;;4953541;29;20463;-75
2021/12/25 08:58:30;;;;;;;21.30;14.07;;;8.50;99.90;;;;;;4953436;29;20451;-74
2021/12/25 09:01:01;;;;;;;20.27;15.00;;;8.50;99.90;;;;;;4952479;28;20622;-75
2021/12/25 09:03:30;;;;;;;23.93;16.43;;;8.50;99.90;;;;;;4955657;28;20953;-74
2021/12/25 09:05:59;;;;;;;22.10;14.60;;;8.50;99.90;;;;;;4957155;28;20543;-74
2021/12/25 09:08:26;;;;;;;21.33;15.17;;;8.40;99.90;;;;;;4957098;28;20533;-74
2021/12/25 09:10:54;;;;;;;21.40;14.20;;;8.40;99.90;;;;;;4956856;28;20504;-75
2021/12/25 09:13:21;;;;;;;21.77;14.30;;;8.50;99.90;;;;;;4948545;28;21002;-77
2021/12/25 09:15:48;;;;;;;21.30;14.60;;;8.40;99.90;;;;;;4945935;28;20454;-75
2021/12/25 09:18:15;;;;;;;21.97;13.97;;;8.30;99.90;;;;;;4948724;29;20471;-74
2021/12/25 09:20:44;;;;;;;23.60;15.10;;;8.30;99.90;;;;;;4949609;29;20576;-75
2021/12/25 09:23:10;;;;;;;24.63;15.10;;;8.40;99.90;;;;;;4937751;29;20536;-74
2021/12/25 09:25:37;;;;;;;25.67;15.67;;;8.30;99.90;;;;;;4945171;29;20539;-75
2021/12/25 09:28:05;;;;;;;21.93;16.20;;;8.30;99.90;;;;;;4947014;29;20456;-74
2021/12/25 09:30:32;;;;;;;21.63;14.73;;;8.30;99.90;;;;;;4941993;29;20552;-74
2021/12/25 09:32:59;;;;;;;26.53;15.20;;;8.30;99.90;;;;;;4936040;29;20485;-74
2021/12/25 09:35:26;;;;;;;24.67;15.03;;;8.30;99.90;;;;;;4936949;29;20545;-74
2021/12/25 09:37:55;;;;;;;20.13;13.70;;;8.30;99.90;;;;;;4937047;29;20453;-74
2021/12/25 09:40:22;;;;;;;19.70;12.70;;;8.40;99.90;;;;;;4936207;29;20461;-74
2021/12/25 09:42:49;;;;;;;18.40;12.53;;;8.30;99.90;;;;;;4936687;29;20454;-74
2021/12/25 09:45:16;;;;;;;24.50;14.27;;;8.30;99.90;;;;;;4936804;29;20512;-74
2021/12/25 09:47:43;;;;;;;22.10;14.70;;;8.30;99.90;;;;;;4937106;29;20536;-74
2021/12/25 09:50:11;;;;;;;22.43;14.63;;;8.40;99.90;;;;;;4937186;29;20938;-74
2021/12/25 09:52:38;;;;;;;24.40;15.37;;;8.40;99.90;;;;;;4936863;29;20536;-74
2021/12/25 09:55:07;;;;;;;27.03;15.57;;;8.40;99.90;;;;;;4937025;29;20457;-74
2021/12/25 09:57:34;;;;;;;22.83;15.17;;;8.50;99.90;;;;;;4936871;29;21013;-74
2021/12/25 10:00:08;;;;;;;25.73;15.60;;;8.50;99.90;;;;;;4936776;29;20829;-74
2021/12/25 10:02:43;;;;;;;22.27;15.10;;;8.40;99.90;;;;;;4936627;29;20592;-74
2021/12/25 10:05:11;;;;;;;19.67;14.50;;;8.40;99.90;;;;;;4936831;29;20540;-74
2021/12/25 10:07:40;;;;;;;26.07;15.50;;;8.40;99.90;;;;;;4936789;29;20497;-74
2021/12/25 10:10:11;;;;;;;20.93;14.60;;;8.40;99.90;;;;;;4936785;29;20460;-74
2021/12/25 10:12:42;;;;;;;20.50;13.73;;;8.40;99.90;;;;;;4936550;29;20977;-74
2021/12/25 10:15:12;;;;;;;24.03;15.33;;;8.40;99.90;;;;;;4936728;29;20466;-74
2021/12/25 10:17:46;;;;;;;21.87;15.03;;;8.40;99.90;;;;;;4936599;29;20449;-74
2021/12/25 10:20:16;;;;;;;20.27;15.50;;;8.40;99.90;;;;;;4936503;29;20476;-74
2021/12/25 10:22:59;;;;;;;25.97;15.57;;;8.40;99.90;;;;;;4936522;29;20577;-74
2021/12/25 10:25:32;;;;;;;29.23;16.07;;;8.40;99.90;;;;;;4936474;29;21162;-74
2021/12/25 10:28:03;;;;;;;24.97;15.60;;;8.40;99.90;;;;;;4936468;29;20505;-74
2021/12/25 10:30:31;;;;;;;23.53;15.13;;;8.50;99.90;;;;;;4936192;29;20525;-74
2021/12/25 10:32:57;;;;;;;24.47;14.70;;;8.40;99.90;;;;;;4936232;29;20468;-74
2021/12/25 10:35:27;;;;;;;25.57;15.77;;;8.40;99.90;;;;;;4936665;29;20514;-74
2021/12/25 10:37:55;;;;;;;26.27;15.97;;;8.50;99.90;;;;;;4936221;29;20468;-74
2021/12/25 10:40:27;;;;;;;29.23;15.57;;;8.50;99.90;;;;;;4936099;29;20485;-74
2021/12/25 10:42:58;;;;;;;23.47;15.83;;;8.50;99.90;;;;;;4935921;29;20489;-74
2021/12/25 10:45:26;;;;;;;30.40;16.30;;;8.50;99.90;;;;;;4936673;29;20873;-74
2021/12/25 10:48:06;;;;;;;24.70;14.57;;;8.50;99.90;;;;;;4936128;29;20462;-75
2021/12/25 10:50:41;;;;;;;28.57;15.50;;;8.50;99.90;;;;;;4935731;29;20986;-74
2021/12/25 10:53:30;;;;;;;25.10;16.70;;;8.50;99.90;;;;;;4935820;29;20456;-74
2021/12/25 10:56:07;;;;;;;28.70;18.10;;;8.50;99.90;;;;;;4936047;29;20946;-74
2021/12/25 10:58:35;;;;;;;35.43;18.83;;;8.60;99.90;;;;;;4936000;29;20553;-74
2021/12/25 11:01:05;;;;;;;32.33;20.33;;;8.60;99.90;;;;;;4935549;29;20624;-74
2021/12/25 11:03:34;;;;;;;28.53;18.30;;;8.60;99.90;;;;;;4935593;29;20949;-74
2021/12/25 11:06:05;;;;;;;32.33;18.70;;;8.60;99.90;;;;;;4935530;29;20560;-74
2021/12/25 11:08:32;;;;;;;31.83;19.03;;;8.60;99.90;;;;;;4935590;29;21025;-74
2021/12/25 11:11:02;;;;;;;29.23;18.20;;;8.70;99.90;;;;;;4935431;29;20556;-74
2021/12/25 11:13:32;;;;;;;30.00;17.70;;;8.60;99.90;;;;;;4936189;29;20548;-74
2021/12/25 11:16:15;;;;;;;29.07;18.20;;;8.70;99.90;;;;;;4935534;29;20533;-74
2021/12/25 11:19:03;;;;;;;35.83;21.57;;;8.70;99.90;;;;;;4935434;29;20861;-74
2021/12/25 11:21:32;;;;;;;28.53;19.80;;;8.70;99.90;;;;;;4938995;29;20492;-74
2021/12/25 11:24:07;;;;;;;33.00;21.17;;;8.80;99.90;;;;;;4954496;29;20543;-74
2021/12/25 11:26:34;;;;;;;32.03;19.80;;;8.80;99.90;;;;;;4953822;28;21334;-74
2021/12/25 11:29:02;;;;;;;43.23;24.80;;;8.80;99.90;;;;;;4954477;29;20540;-74
2021/12/25 11:31:31;;;;;;;37.20;22.30;;;8.80;99.90;;;;;;4954584;28;20504;-74
2021/12/25 11:33:58;;;;;;;32.80;19.87;;;8.80;99.90;;;;;;4954557;29;20445;-74
2021/12/25 11:36:25;;;;;;;24.10;14.77;;;8.80;99.90;;;;;;4954399;29;21016;-74
2021/12/25 11:38:52;;;;;;;29.10;15.97;;;8.80;99.90;;;;;;4954115;28;20461;-74
2021/12/25 11:41:19;;;;;;;25.70;15.50;;;8.80;99.90;;;;;;4953955;29;20583;-73
2021/12/25 11:43:47;;;;;;;20.97;14.17;;;8.80;99.90;;;;;;4954221;29;21184;-74
2021/12/25 11:46:15;;;;;;;19.10;14.20;;;8.80;99.90;;;;;;4954431;29;20445;-74
2021/12/25 11:48:45;;;;;;;20.53;13.20;;;8.90;99.90;;;;;;4954088;29;20488;-74
2021/12/25 11:51:27;;;;;;;18.87;12.90;;;8.90;99.90;;;;;;4954084;28;20531;-74
2021/12/25 11:54:08;;;;;;;18.00;12.77;;;8.90;99.90;;;;;;4954086;29;20441;-74
2021/12/25 11:56:50;;;;;;;19.20;12.93;;;8.80;99.90;;;;;;4954246;29;20464;-74
2021/12/25 11:59:19;;;;;;;23.10;15.40;;;8.90;99.90;;;;;;4953869;29;20468;-74
2021/12/25 12:01:48;;;;;;;17.50;12.47;;;8.90;99.90;;;;;;4953931;28;20500;-74
2021/12/25 12:04:19;;;;;;;18.63;12.87;;;9.00;99.90;;;;;;4954239;29;20480;-74
2021/12/25 12:06:59;;;;;;;25.77;13.17;;;9.00;99.90;;;;;;4954030;28;20492;-74
2021/12/25 12:09:28;;;;;;;21.90;13.97;;;9.00;99.90;;;;;;4953930;29;20507;-74
2021/12/25 12:12:19;;;;;;;19.93;13.43;;;9.00;99.90;;;;;;4953732;29;20555;-74
2021/12/25 12:15:04;;;;;;;22.57;12.70;;;9.10;99.90;;;;;;4950424;28;20508;-74
2021/12/25 12:17:32;;;;;;;19.57;13.10;;;9.10;99.90;;;;;;4953989;29;20494;-74
2021/12/25 12:20:03;;;;;;;21.83;12.90;;;9.10;99.90;;;;;;4953657;29;20916;-74
2021/12/25 12:22:55;;;;;;;18.93;12.70;;;9.00;99.90;;;;;;4953507;29;20500;-74
2021/12/25 12:25:30;;;;;;;21.33;13.07;;;9.00;99.90;;;;;;4954008;29;20460;-74
2021/12/25 12:27:59;;;;;;;25.67;12.60;;;8.90;99.90;;;;;;4953817;29;20802;-74
2021/12/25 12:30:45;;;;;;;16.70;12.40;;;9.00;99.90;;;;;;4953305;28;21031;-74
2021/12/25 12:33:35;;;;;;;17.40;12.10;;;9.00;99.90;;;;;;4953683;29;20527;-74
2021/12/25 12:36:20;;;;;;;21.07;11.40;;;9.00;99.90;;;;;;4953902;28;20552;-74
2021/12/25 12:38:51;;;;;;;21.33;12.43;;;9.00;99.90;;;;;;4956740;29;20464;-74
2021/12/25 12:41:26;;;;;;;17.00;11.13;;;9.00;99.90;;;;;;4957432;28;20532;-74
2021/12/25 12:44:09;;;;;;;16.60;11.17;;;9.00;99.90;;;;;;4949997;29;20480;-74
2021/12/25 12:47:01;;;;;;;19.07;11.50;;;9.00;99.90;;;;;;4957668;29;20487;-74
2021/12/25 12:49:34;;;;;;;23.30;12.10;;;9.00;99.90;;;;;;4954333;29;20547;-74
2021/12/25 12:52:26;;;;;;;19.53;11.97;;;9.00;99.90;;;;;;4957406;29;20468;-74
2021/12/25 12:54:56;;;;;;;20.00;12.43;;;9.00;99.90;;;;;;4957430;29;20448;-74
2021/12/25 12:57:28;;;;;;;20.03;13.00;;;9.00;99.90;;;;;;4957322;29;20540;-74
2021/12/25 12:59:57;;;;;;;23.10;14.10;;;9.00;99.90;;;;;;4957133;29;20469;-74
2021/12/25 13:02:31;;;;;;;20.27;12.57;;;9.00;99.90;;;;;;4956839;29;20906;-74
2021/12/25 13:05:01;;;;;;;18.93;12.87;;;9.00;99.90;;;;;;4957050;29;20496;-74
2021/12/25 13:07:32;;;;;;;20.20;14.20;;;9.00;99.90;;;;;;4957047;29;20453;-73
2021/12/25 13:10:14;;;;;;;27.07;15.17;;;9.00;99.90;;;;;;4956771;29;20937;-74
2021/12/25 13:12:46;;;;;;;26.00;14.80;;;9.00;99.90;;;;;;4956966;29;20449;-74
2021/12/25 13:15:16;;;;;;;19.33;14.07;;;9.00;99.90;;;;;;4957243;28;20460;-73
2021/12/25 13:17:48;;;;;;;23.90;14.87;;;9.10;99.90;;;;;;4956913;28;20448;-73
2021/12/25 13:20:16;;;;;;;18.80;13.40;;;9.10;99.90;;;;;;4956861;29;20452;-73
2021/12/25 13:22:56;;;;;;;17.67;12.87;;;9.10;99.90;;;;;;4956668;29;20500;-73
2021/12/25 13:25:23;;;;;;;21.50;14.43;;;9.20;99.90;;;;;;4956793;29;20832;-73
2021/12/25 13:27:55;;;;;;;25.07;15.57;;;9.20;99.90;;;;;;4956697;28;20452;-74
2021/12/25 13:30:22;;;;;;;24.20;15.40;;;9.30;99.90;;;;;;4956454;29;20912;-74
2021/12/25 13:32:50;;;;;;;20.60;14.17;;;9.30;99.90;;;;;;4956708;29;20532;-73
2021/12/25 13:35:17;;;;;;;20.50;15.20;;;9.20;99.90;;;;;;4956663;29;20460;-75
2021/12/25 13:37:45;;;;;;;21.70;14.53;;;9.20;99.90;;;;;;4956428;29;20544;-73
2021/12/25 13:40:15;;;;;;;21.60;14.60;;;9.20;99.90;;;;;;4956055;29;20469;-73
2021/12/25 13:42:42;;;;;;;19.93;12.97;;;9.30;99.90;;;;;;4956264;29;20866;-74
2021/12/25 13:45:11;;;;;;;20.10;13.53;;;9.30;99.90;;;;;;4956323;28;20496;-73
2021/12/25 13:47:39;;;;;;;19.63;13.07;;;9.30;99.90;;;;;;4956332;28;20893;-73
2021/12/25 13:50:09;;;;;;;18.80;14.57;;;9.30;99.90;;;;;;4955866;29;20507;-73
2021/12/25 13:52:37;;;;;;;21.93;14.43;;;9.30;99.90;;;;;;4956011;29;21122;-73
2021/12/25 13:55:17;;;;;;;17.13;13.00;;;9.30;99.90;;;;;;4956473;29;20452;-75
2021/12/25 13:57:46;;;;;;;18.07;12.67;;;9.30;99.90;;;;;;4956344;29;20448;-73
2021/12/25 14:00:17;;;;;;;17.70;13.43;;;9.30;99.90;;;;;;4956052;29;20536;-73
2021/12/25 14:02:46;;;;;;;20.47;13.73;;;9.30;99.90;;;;;;4956294;28;20922;-73
2021/12/25 14:05:14;;;;;;;18.10;12.93;;;9.30;99.90;;;;;;4955999;29;20540;-73
2021/12/25 14:07:42;;;;;;;20.57;12.20;;;9.30;99.90;;;;;;4956117;29;20495;-73
2021/12/25 14:10:11;;;;;;;18.03;12.20;;;9.30;99.90;;;;;;4955905;29;20480;-75
2021/12/25 14:12:42;;;;;;;23.20;14.50;;;9.30;99.90;;;;;;4956303;29;20449;-74
2021/12/25 14:15:11;;;;;;;17.47;12.10;;;9.30;99.90;;;;;;4955909;29;20953;-73
2021/12/25 14:17:39;;;;;;;13.90;10.57;;;9.40;99.90;;;;;;4955684;28;20461;-74
2021/12/25 14:20:09;;;;;;;14.60;11.07;;;9.30;99.90;;;;;;4955601;28;21179;-74
2021/12/25 14:22:36;;;;;;;16.50;11.20;;;9.30;99.90;;;;;;4955558;28;20600;-74
2021/12/25 14:25:05;;;;;;;11.87;9.20;;;9.30;99.90;;;;;;4955933;29;20540;-74
2021/12/25 14:27:34;;;;;;;13.53;9.80;;;9.30;99.90;;;;;;4955877;29;20539;-74
2021/12/25 14:30:09;;;;;;;10.20;8.27;;;9.30;99.90;;;;;;4955783;29;20461;-74
2021/12/25 14:32:37;;;;;;;10.60;7.83;;;9.30;99.90;;;;;;4955503;29;20556;-74
2021/12/25 14:35:15;;;;;;;9.50;7.20;;;9.20;99.90;;;;;;4955546;29;20528;-73
2021/12/25 14:37:42;;;;;;;13.70;7.30;;;9.20;99.90;;;;;;4955657;28;20488;-73
2021/12/25 14:40:12;;;;;;;31.87;18.50;;;9.20;99.90;;;;;;4955221;29;20877;-73
2021/12/25 14:42:41;;;;;;;26.07;13.90;;;9.20;99.90;;;;;;4955496;29;20600;-73
2021/12/25 14:45:10;;;;;;;11.07;8.13;;;9.20;99.90;;;;;;4955458;29;20484;-74
2021/12/25 14:47:51;;;;;;;9.33;6.07;;;9.20;99.90;;;;;;4955332;29;20484;-76
2021/12/25 14:50:25;;;;;;;7.73;6.30;;;9.20;99.90;;;;;;4954843;29;20503;-74
2021/12/25 14:53:10;;;;;;;5.73;4.77;;;9.10;99.90;;;;;;4954729;29;20453;-74
2021/12/25 14:55:39;;;;;;;13.77;8.50;;;8.90;99.90;;;;;;4946327;29;20511;-74
2021/12/25 14:58:12;;;;;;;10.97;7.30;;;8.90;99.90;;;;;;4952848;29;20532;-74
2021/12/25 15:00:40;;;;;;;10.30;5.50;;;8.80;99.90;;;;;;4951013;28;20571;-73
2021/12/25 15:03:17;;;;;;;9.20;6.50;;;8.70;99.90;;;;;;4952809;28;20608;-74
2021/12/25 15:05:50;;;;;;;12.37;10.43;;;8.60;99.90;;;;;;4949556;29;20488;-74
2021/12/25 15:08:26;;;;;;;15.93;9.70;;;8.50;99.90;;;;;;4954042;29;20453;-74
2021/12/25 15:10:54;;;;;;;11.00;7.70;;;8.40;99.90;;;;;;4953711;28;20843;-74
2021/12/25 15:13:24;;;;;;;25.00;18.20;;;8.50;99.90;;;;;;4954107;29;20540;-74
2021/12/25 15:15:54;;;;;;;132.63;69.80;;;8.40;99.90;;;;;;4952711;29;20444;-75
2021/12/25 15:18:26;;;;;;;29.97;22.27;;;8.30;99.90;;;;;;4954090;29;20480;-75
2021/12/25 15:21:08;;;;;;;19.40;15.70;;;8.30;99.90;;;;;;4952487;28;20569;-75
2021/12/25 15:23:35;;;;;;;114.57;65.43;;;8.30;99.90;;;;;;4952878;29;20567;-75
2021/12/25 15:26:09;;;;;;;30.07;20.23;;;8.20;99.90;;;;;;4952889;29;20528;-74
2021/12/25 15:28:37;;;;;;;38.00;23.30;;;8.20;99.90;;;;;;4953895;29;20910;-75
2021/12/25 15:31:18;;;;;;;30.00;18.87;;;8.20;99.90;;;;;;4953436;29;20564;-75
2021/12/25 15:33:48;;;;;;;17.50;12.80;;;8.20;99.90;;;;;;4953753;29;20536;-75
2021/12/25 15:36:16;;;;;;;9.97;7.80;;;8.20;99.90;;;;;;4951063;28;20477;-79
2021/12/25 15:38:43;;;;;;;26.60;18.30;;;8.20;99.90;;;;;;4947412;29;20509;-79
2021/12/25 15:41:10;;;;;;;116.30;64.97;;;8.20;99.90;;;;;;4950339;29;20507;-78
2021/12/25 15:43:38;;;;;;;54.47;32.67;;;8.20;99.90;;;;;;4946297;29;21819;-78
2021/12/25 15:46:05;;;;;;;30.70;22.00;;;8.20;99.90;;;;;;4945254;29;20531;-77
2021/12/25 15:48:36;;;;;;;27.80;16.23;;;8.20;99.90;;;;;;4936754;29;20460;-77
2021/12/25 15:51:04;;;;;;;14.63;11.00;;;8.20;99.90;;;;;;4952588;28;20484;-80
2021/12/25 15:53:31;;;;;;;8.50;7.30;;;8.10;99.90;;;;;;4955774;28;21485;-78
2021/12/25 15:55:59;;;;;;;7.33;5.63;;;8.00;99.90;;;;;;4943269;28;20580;-79
2021/12/25 15:58:26;;;;;;;8.90;6.80;;;8.10;99.90;;;;;;4958439;28;20480;-79
2021/12/25 16:00:53;;;;;;;13.10;9.30;;;8.00;99.90;;;;;;4936506;29;20513;-77
2021/12/25 16:03:21;;;;;;;10.27;8.13;;;8.00;99.90;;;;;;4943814;29;20571;-77
2021/12/25 16:05:50;;;;;;;12.30;9.60;;;8.00;99.90;;;;;;4963809;28;20481;-81
2021/12/25 16:08:18;;;;;;;8.87;7.30;;;8.00;99.90;;;;;;4966985;28;20504;-81
2021/12/25 16:10:47;;;;;;;6.73;6.03;;;7.90;99.90;;;;;;4960394;28;20556;-82
2021/12/25 16:13:19;;;;;;;8.33;5.50;;;7.90;99.90;;;;;;4964125;28;20448;-83
2021/12/25 16:15:50;;;;;;;6.63;5.97;;;7.90;99.90;;;;;;4978362;28;20536;-81
2021/12/25 16:18:17;;;;;;;8.33;7.37;;;7.80;99.90;;;;;;4964622;28;20504;-81
2021/12/25 16:20:50;;;;;;;13.00;10.60;;;7.70;99.90;;;;;;4959862;28;20989;-84
2021/12/25 16:23:17;;;;;;;12.50;8.87;;;7.70;99.90;;;;;;4976748;28;20487;-81
2021/12/25 16:25:45;;;;;;;11.03;8.70;;;7.60;99.90;;;;;;4976824;28;20483;-82
2021/12/25 16:28:13;;;;;;;6.20;5.40;;;7.60;99.90;;;;;;4964010;28;20457;-81
2021/12/25 16:30:41;;;;;;;6.27;5.67;;;7.60;99.90;;;;;;4956409;28;20492;-78
2021/12/25 16:33:09;;;;;;;8.83;6.80;;;7.60;99.90;;;;;;4973915;28;20452;-77
2021/12/25 16:35:39;;;;;;;7.10;6.23;;;7.60;99.90;;;;;;4967173;28;20862;-77
2021/12/25 16:38:09;;;;;;;12.33;11.03;;;7.60;99.90;;;;;;4962137;28;20559;-78
2021/12/25 16:40:37;;;;;;;9.10;7.77;;;7.60;99.90;;;;;;4967151;28;20504;-78
2021/12/25 16:43:05;;;;;;;7.17;6.00;;;7.50;99.90;;;;;;4957431;29;20518;-77
2021/12/25 16:45:32;;;;;;;9.77;6.20;;;7.50;99.90;;;;;;4957091;29;20452;-78
2021/12/25 16:47:59;;;;;;;7.43;6.63;;;7.40;99.90;;;;;;4957225;29;20511;-78
2021/12/25 16:50:26;;;;;;;7.40;5.70;;;7.30;99.90;;;;;;4956817;29;20457;-77
2021/12/25 16:52:54;;;;;;;13.83;12.37;;;7.30;99.90;;;;;;4956504;28;20481;-77
2021/12/25 16:55:22;;;;;;;12.00;9.20;;;7.30;99.90;;;;;;4954331;29;20535;-77
2021/12/25 16:57:49;;;;;;;6.60;5.87;;;7.30;99.90;;;;;;4955195;29;20556;-78
2021/12/25 17:00:24;;;;;;;8.47;6.83;;;7.30;99.90;;;;;;4956709;28;20488;-77
2021/12/25 17:02:51;;;;;;;7.00;6.20;;;7.30;99.90;;;;;;4956487;29;20528;-77
2021/12/25 17:05:18;;;;;;;9.03;7.10;;;7.20;99.90;;;;;;4956179;29;20515;-77
2021/12/25 17:07:45;;;;;;;8.60;6.73;;;7.10;99.90;;;;;;4954468;29;20539;-77
2021/12/25 17:10:12;;;;;;;27.53;22.17;;;7.10;99.90;;;;;;4954599;29;20509;-77
2021/12/25 17:12:42;;;;;;;23.87;18.47;;;7.00;99.90;;;;;;4954613;29;21001;-77
2021/12/25 17:15:12;;;;;;;19.30;14.00;;;7.10;99.90;;;;;;5000719;23;20500;-72
2021/12/25 17:17:40;;;;;;;16.30;10.53;;;6.90;99.90;;;;;;4972859;28;20863;-72
2021/12/25 17:20:09;;;;;;;17.87;12.40;;;6.80;99.90;;;;;;4972593;28;20491;-73
2021/12/25 17:22:37;;;;;;;32.47;19.03;;;6.80;99.90;;;;;;4972724;28;20483;-73
2021/12/25 17:25:06;;;;;;;24.63;12.40;;;6.70;99.90;;;;;;4975439;28;20534;-72
2021/12/25 17:27:33;;;;;;;57.60;34.17;;;6.70;99.90;;;;;;4976144;28;20463;-72
2021/12/25 17:30:02;;;;;;;25.83;16.07;;;6.60;99.90;;;;;;4973641;28;20551;-73
2021/12/25 17:32:29;;;;;;;16.33;11.53;;;6.60;99.90;;;;;;4974832;28;20490;-73
2021/12/25 17:34:56;;;;;;;12.23;8.10;;;6.60;99.90;;;;;;4972047;28;20504;-72
2021/12/25 17:37:23;;;;;;;10.60;8.40;;;6.60;99.90;;;;;;4955794;29;20886;-73
2021/12/25 17:39:52;;;;;;;12.13;10.43;;;6.50;99.90;;;;;;4955915;29;20484;-72
2021/12/25 17:42:20;;;;;;;12.37;9.37;;;6.50;99.90;;;;;;4956440;29;21000;-73
2021/12/25 17:44:47;;;;;;;12.30;8.83;;;6.40;99.90;;;;;;4955256;29;21050;-66
2021/12/25 17:47:15;;;;;;;12.87;9.33;;;6.30;99.90;;;;;;4956234;29;20484;-66
2021/12/25 17:49:43;;;;;;;13.67;9.70;;;6.30;99.90;;;;;;4947493;29;20450;-66
2021/12/25 17:52:09;;;;;;;11.40;8.47;;;6.20;99.90;;;;;;4936933;29;20540;-66
2021/12/25 17:54:37;;;;;;;12.10;8.73;;;6.20;99.90;;;;;;4937067;29;20544;-66